sensor_id;sensor_type;location;lat;lon;timestamp;pressure;altitude;pressure_sealevel;temperature;humidity
67373;BME280;54257;54.496;18.412;2023-01-31T00:01:15;98295.98;;;1.87;100.00
67373;BME280;54257;54.496;18.412;2023-01-31T00:03:42;98292.89;;;1.85;100.00
67373;BME280;54257;54.496;18.412;2023-01-31T00:08:38;98290.69;;;1.85;100.00
67373;BME280;54257;54.496;18.412;2023-01-31T00:11:04;98297.40;;;1.84;100.00
67373;BME280;54257;54.496;18.412;2023-01-31T00:13:31;98298.58;;;1.83;100.00
67373;BME280;54257;54.496;18.412;2023-01-31T00:15:57;98306.16;;;1.84;100.00
67373;BME280;54257;54.496;18.412;2023-01-31T00:18:24;98306.98;;;1.83;100.00
67373;BME280;54257;54.496;18.412;2023-01-31T00:20:50;98311.52;;;1.82;100.00
67373;BME280;54257;54.496;18.412;2023-01-31T00:23:17;98314.20;;;1.82;100.00
67373;BME280;54257;54.496;18.412;2023-01-31T00:25:43;98323.60;;;1.81;100.00
67373;BME280;54257;54.496;18.412;2023-01-31T00:28:09;98327.13;;;1.80;100.00
67373;BME280;54257;54.496;18.412;2023-01-31T00:30:35;98328.27;;;1.79;100.00
67373;BME280;54257;54.496;18.412;2023-01-31T00:33:02;98326.05;;;1.78;100.00
67373;BME280;54257;54.496;18.412;2023-01-31T00:35:28;98330.56;;;1.77;100.00
67373;BME280;54257;54.496;18.412;2023-01-31T00:37:55;98327.84;;;1.76;100.00
67373;BME280;54257;54.496;18.412;2023-01-31T00:40:22;98334.04;;;1.75;100.00
67373;BME280;54257;54.496;18.412;2023-01-31T00:42:48;98339.08;;;1.74;100.00
67373;BME280;54257;54.496;18.412;2023-01-31T00:45:15;98337.69;;;1.72;100.00
67373;BME280;54257;54.496;18.412;2023-01-31T00:47:41;98344.58;;;1.71;100.00
67373;BME280;54257;54.496;18.412;2023-01-31T00:50:13;98345.05;;;1.71;100.00
67373;BME280;54257;54.496;18.412;2023-01-31T00:52:40;98350.09;;;1.71;100.00
67373;BME280;54257;54.496;18.412;2023-01-31T00:55:07;98354.27;;;1.69;100.00
67373;BME280;54257;54.496;18.412;2023-01-31T00:57:33;98362.33;;;1.68;100.00
67373;BME280;54257;54.496;18.412;2023-01-31T01:00:00;98367.99;;;1.66;100.00
67373;BME280;54257;54.496;18.412;2023-01-31T01:02:27;98372.54;;;1.66;100.00
67373;BME280;54257;54.496;18.412;2023-01-31T01:04:59;98377.55;;;1.65;100.00
67373;BME280;54257;54.496;18.412;2023-01-31T01:07:25;98379.75;;;1.65;100.00
67373;BME280;54257;54.496;18.412;2023-01-31T01:09:51;98386.61;;;1.64;100.00
67373;BME280;54257;54.496;18.412;2023-01-31T01:12:20;98393.99;;;1.63;100.00
67373;BME280;54257;54.496;18.412;2023-01-31T01:14:46;98396.30;;;1.62;100.00
67373;BME280;54257;54.496;18.412;2023-01-31T01:17:13;98397.10;;;1.60;100.00
67373;BME280;54257;54.496;18.412;2023-01-31T01:19:39;98398.77;;;1.60;100.00
67373;BME280;54257;54.496;18.412;2023-01-31T01:22:06;98400.60;;;1.59;100.00
67373;BME280;54257;54.496;18.412;2023-01-31T01:24:33;98409.02;;;1.59;99.98
67373;BME280;54257;54.496;18.412;2023-01-31T01:27:00;98411.86;;;1.58;99.90
67373;BME280;54257;54.496;18.412;2023-01-31T01:29:26;98408.28;;;1.56;99.77
67373;BME280;54257;54.496;18.412;2023-01-31T01:31:52;98413.19;;;1.57;99.63
67373;BME280;54257;54.496;18.412;2023-01-31T01:34:19;98418.23;;;1.57;99.43
67373;BME280;54257;54.496;18.412;2023-01-31T01:36:45;98420.25;;;1.57;99.13
67373;BME280;54257;54.496;18.412;2023-01-31T01:39:12;98426.32;;;1.58;99.06
67373;BME280;54257;54.496;18.412;2023-01-31T01:41:39;98430.35;;;1.57;98.86
67373;BME280;54257;54.496;18.412;2023-01-31T01:50:14;98447.06;;;1.54;98.28
67373;BME280;54257;54.496;18.412;2023-01-31T01:52:49;98444.52;;;1.53;98.00
67373;BME280;54257;54.496;18.412;2023-01-31T01:55:25;98440.62;;;1.52;98.15
67373;BME280;54257;54.496;18.412;2023-01-31T01:58:07;98445.83;;;1.52;97.90
67373;BME280;54257;54.496;18.412;2023-01-31T02:00:35;98449.68;;;1.51;97.38
67373;BME280;54257;54.496;18.412;2023-01-31T02:03:04;98449.17;;;1.51;97.06
67373;BME280;54257;54.496;18.412;2023-01-31T02:05:48;98448.34;;;1.51;97.13
67373;BME280;54257;54.496;18.412;2023-01-31T02:08:20;98453.20;;;1.51;97.34
67373;BME280;54257;54.496;18.412;2023-01-31T02:11:26;98459.55;;;1.49;96.93
67373;BME280;54257;54.496;18.412;2023-01-31T02:14:04;98465.60;;;1.48;96.79
67373;BME280;54257;54.496;18.412;2023-01-31T02:16:33;98469.27;;;1.47;96.78
67373;BME280;54257;54.496;18.412;2023-01-31T02:18:59;98479.45;;;1.45;96.73
67373;BME280;54257;54.496;18.412;2023-01-31T02:43:11;98517.73;;;1.37;96.39
67373;BME280;54257;54.496;18.412;2023-01-31T02:53:21;98526.00;;;1.31;95.92
67373;BME280;54257;54.496;18.412;2023-01-31T02:55:57;98536.25;;;1.31;95.96
67373;BME280;54257;54.496;18.412;2023-01-31T03:01:18;98548.10;;;1.29;95.60
67373;BME280;54257;54.496;18.412;2023-01-31T03:03:46;98554.97;;;1.27;95.65
67373;BME280;54257;54.496;18.412;2023-01-31T03:11:51;98569.35;;;1.24;95.21
67373;BME280;54257;54.496;18.412;2023-01-31T03:14:51;98563.94;;;1.23;95.35
67373;BME280;54257;54.496;18.412;2023-01-31T03:23:23;98561.75;;;1.19;95.21
67373;BME280;54257;54.496;18.412;2023-01-31T03:25:58;98562.36;;;1.16;94.95
67373;BME280;54257;54.496;18.412;2023-01-31T03:28:32;98565.15;;;1.14;95.03
67373;BME280;54257;54.496;18.412;2023-01-31T03:31:18;98572.05;;;1.14;95.10
67373;BME280;54257;54.496;18.412;2023-01-31T03:33:50;98579.73;;;1.13;95.10
67373;BME280;54257;54.496;18.412;2023-01-31T03:36:56;98581.02;;;1.11;95.04
67373;BME280;54257;54.496;18.412;2023-01-31T03:39:59;98586.20;;;1.09;95.03
67373;BME280;54257;54.496;18.412;2023-01-31T03:42:59;98589.33;;;1.07;95.04
67373;BME280;54257;54.496;18.412;2023-01-31T03:45:40;98587.21;;;1.04;95.04
67373;BME280;54257;54.496;18.412;2023-01-31T03:48:13;98591.38;;;1.04;95.12
67373;BME280;54257;54.496;18.412;2023-01-31T03:50:54;98586.65;;;1.03;94.96
67373;BME280;54257;54.496;18.412;2023-01-31T03:55:58;98592.88;;;1.03;95.00
67373;BME280;54257;54.496;18.412;2023-01-31T03:58:29;98590.66;;;1.02;94.62
67373;BME280;54257;54.496;18.412;2023-01-31T04:00:58;98594.01;;;1.01;94.63
67373;BME280;54257;54.496;18.412;2023-01-31T04:03:30;98599.73;;;1.02;94.67
67373;BME280;54257;54.496;18.412;2023-01-31T04:05:57;98601.40;;;1.01;94.54
67373;BME280;54257;54.496;18.412;2023-01-31T04:08:26;98606.24;;;1.00;94.28
67373;BME280;54257;54.496;18.412;2023-01-31T04:10:53;98613.98;;;1.00;93.91
67373;BME280;54257;54.496;18.412;2023-01-31T04:13:21;98616.52;;;1.01;94.08
67373;BME280;54257;54.496;18.412;2023-01-31T04:15:48;98620.20;;;1.01;93.96
67373;BME280;54257;54.496;18.412;2023-01-31T04:18:14;98622.55;;;1.00;94.02
67373;BME280;54257;54.496;18.412;2023-01-31T04:20:41;98626.21;;;0.99;93.72
67373;BME280;54257;54.496;18.412;2023-01-31T04:23:07;98632.10;;;1.00;93.59
67373;BME280;54257;54.496;18.412;2023-01-31T04:25:34;98637.80;;;0.99;93.41
67373;BME280;54257;54.496;18.412;2023-01-31T04:28:01;98645.36;;;0.98;93.61
67373;BME280;54257;54.496;18.412;2023-01-31T04:30:27;98647.14;;;0.97;93.50
67373;BME280;54257;54.496;18.412;2023-01-31T04:32:53;98649.44;;;0.96;93.38
67373;BME280;54257;54.496;18.412;2023-01-31T04:35:20;98657.17;;;0.95;93.46
67373;BME280;54257;54.496;18.412;2023-01-31T04:37:46;98658.30;;;0.94;93.49
67373;BME280;54257;54.496;18.412;2023-01-31T04:40:15;98665.52;;;0.93;93.37
67373;BME280;54257;54.496;18.412;2023-01-31T04:42:42;98669.67;;;0.92;93.42
67373;BME280;54257;54.496;18.412;2023-01-31T04:45:09;98673.88;;;0.92;93.55
67373;BME280;54257;54.496;18.412;2023-01-31T04:47:36;98673.48;;;0.90;93.37
67373;BME280;54257;54.496;18.412;2023-01-31T04:50:02;98672.11;;;0.90;93.21
67373;BME280;54257;54.496;18.412;2023-01-31T04:52:28;98672.81;;;0.90;93.15
67373;BME280;54257;54.496;18.412;2023-01-31T04:54:55;98675.87;;;0.91;93.07
67373;BME280;54257;54.496;18.412;2023-01-31T04:57:21;98676.88;;;0.91;92.95
67373;BME280;54257;54.496;18.412;2023-01-31T04:59:47;98689.14;;;0.91;92.93
67373;BME280;54257;54.496;18.412;2023-01-31T05:02:15;98697.34;;;0.90;92.82
67373;BME280;54257;54.496;18.412;2023-01-31T05:04:43;98701.40;;;0.91;92.78
67373;BME280;54257;54.496;18.412;2023-01-31T05:07:09;98707.61;;;0.91;92.86
67373;BME280;54257;54.496;18.412;2023-01-31T05:09:35;98713.48;;;0.90;92.69
67373;BME280;54257;54.496;18.412;2023-01-31T05:12:02;98715.96;;;0.89;92.86
67373;BME280;54257;54.496;18.412;2023-01-31T05:14:30;98723.17;;;0.89;92.97
67373;BME280;54257;54.496;18.412;2023-01-31T05:16:58;98724.64;;;0.88;92.96
67373;BME280;54257;54.496;18.412;2023-01-31T05:19:26;98729.30;;;0.87;93.04
67373;BME280;54257;54.496;18.412;2023-01-31T05:21:52;98729.44;;;0.85;93.12
67373;BME280;54257;54.496;18.412;2023-01-31T05:24:26;98727.69;;;0.83;93.31
67373;BME280;54257;54.496;18.412;2023-01-31T05:26:53;98730.04;;;0.82;93.49
67373;BME280;54257;54.496;18.412;2023-01-31T05:29:24;98731.63;;;0.81;93.61
67373;BME280;54257;54.496;18.412;2023-01-31T05:31:55;98739.55;;;0.81;93.76
67373;BME280;54257;54.496;18.412;2023-01-31T05:34:22;98745.05;;;0.80;94.05
67373;BME280;54257;54.496;18.412;2023-01-31T05:36:51;98750.45;;;0.80;94.19
67373;BME280;54257;54.496;18.412;2023-01-31T05:39:19;98753.45;;;0.80;94.37
67373;BME280;54257;54.496;18.412;2023-01-31T05:41:45;98754.63;;;0.80;94.46
67373;BME280;54257;54.496;18.412;2023-01-31T05:44:11;98748.73;;;0.79;94.59
67373;BME280;54257;54.496;18.412;2023-01-31T05:46:39;98753.73;;;0.79;94.64
67373;BME280;54257;54.496;18.412;2023-01-31T05:49:05;98758.91;;;0.77;95.04
67373;BME280;54257;54.496;18.412;2023-01-31T05:51:32;98758.04;;;0.76;95.29
67373;BME280;54257;54.496;18.412;2023-01-31T05:53:59;98766.50;;;0.78;95.21
67373;BME280;54257;54.496;18.412;2023-01-31T05:56:25;98767.69;;;0.79;95.31
67373;BME280;54257;54.496;18.412;2023-01-31T05:58:52;98770.86;;;0.78;95.48
67373;BME280;54257;54.496;18.412;2023-01-31T06:01:23;98777.39;;;0.77;95.66
67373;BME280;54257;54.496;18.412;2023-01-31T06:03:50;98785.46;;;0.78;95.98
67373;BME280;54257;54.496;18.412;2023-01-31T06:06:16;98786.98;;;0.78;95.85
67373;BME280;54257;54.496;18.412;2023-01-31T06:08:43;98787.96;;;0.77;96.07
67373;BME280;54257;54.496;18.412;2023-01-31T06:11:10;98797.20;;;0.77;96.17
67373;BME280;54257;54.496;18.412;2023-01-31T06:13:38;98803.05;;;0.76;96.27
67373;BME280;54257;54.496;18.412;2023-01-31T06:16:05;98806.91;;;0.75;96.43
67373;BME280;54257;54.496;18.412;2023-01-31T06:18:32;98814.77;;;0.74;96.49
67373;BME280;54257;54.496;18.412;2023-01-31T06:21:00;98819.14;;;0.74;96.52
67373;BME280;54257;54.496;18.412;2023-01-31T06:23:27;98821.30;;;0.74;96.47
67373;BME280;54257;54.496;18.412;2023-01-31T06:25:54;98820.07;;;0.73;96.65
67373;BME280;54257;54.496;18.412;2023-01-31T06:28:22;98822.05;;;0.72;96.90
67373;BME280;54257;54.496;18.412;2023-01-31T06:30:48;98826.40;;;0.72;96.90
67373;BME280;54257;54.496;18.412;2023-01-31T06:33:15;98828.59;;;0.72;96.93
67373;BME280;54257;54.496;18.412;2023-01-31T06:35:42;98833.14;;;0.72;96.90
67373;BME280;54257;54.496;18.412;2023-01-31T06:38:08;98836.65;;;0.71;96.99
67373;BME280;54257;54.496;18.412;2023-01-31T06:40:37;98832.94;;;0.71;97.00
67373;BME280;54257;54.496;18.412;2023-01-31T06:43:04;98843.03;;;0.71;97.18
67373;BME280;54257;54.496;18.412;2023-01-31T06:45:31;98846.10;;;0.73;97.14
67373;BME280;54257;54.496;18.412;2023-01-31T06:47:59;98849.02;;;0.73;97.04
67373;BME280;54257;54.496;18.412;2023-01-31T06:50:26;98847.20;;;0.74;97.04
67373;BME280;54257;54.496;18.412;2023-01-31T06:52:53;98853.58;;;0.74;97.02
67373;BME280;54257;54.496;18.412;2023-01-31T06:55:23;98854.80;;;0.76;97.01
67373;BME280;54257;54.496;18.412;2023-01-31T06:57:49;98858.37;;;0.77;97.16
67373;BME280;54257;54.496;18.412;2023-01-31T07:00:16;98856.24;;;0.79;97.15
67373;BME280;54257;54.496;18.412;2023-01-31T07:02:45;98860.13;;;0.79;97.23
67373;BME280;54257;54.496;18.412;2023-01-31T07:05:12;98861.89;;;0.81;97.18
67373;BME280;54257;54.496;18.412;2023-01-31T07:07:39;98863.51;;;0.84;97.33
67373;BME280;54257;54.496;18.412;2023-01-31T07:10:06;98871.13;;;0.86;97.44
67373;BME280;54257;54.496;18.412;2023-01-31T07:12:33;98874.95;;;0.89;97.51
67373;BME280;54257;54.496;18.412;2023-01-31T07:14:59;98873.70;;;0.91;97.48
67373;BME280;54257;54.496;18.412;2023-01-31T07:17:26;98878.33;;;0.94;97.61
67373;BME280;54257;54.496;18.412;2023-01-31T07:19:52;98883.11;;;0.96;97.64
67373;BME280;54257;54.496;18.412;2023-01-31T07:22:19;98884.23;;;0.99;97.91
67373;BME280;54257;54.496;18.412;2023-01-31T07:24:45;98885.67;;;1.02;97.87
67373;BME280;54257;54.496;18.412;2023-01-31T07:27:12;98883.05;;;1.03;98.07
67373;BME280;54257;54.496;18.412;2023-01-31T07:29:43;98886.55;;;1.07;98.10
67373;BME280;54257;54.496;18.412;2023-01-31T07:32:12;98886.28;;;1.09;98.28
67373;BME280;54257;54.496;18.412;2023-01-31T07:34:38;98885.42;;;1.13;98.47
67373;BME280;54257;54.496;18.412;2023-01-31T07:37:05;98891.48;;;1.18;98.55
67373;BME280;54257;54.496;18.412;2023-01-31T07:39:34;98892.85;;;1.23;98.55
67373;BME280;54257;54.496;18.412;2023-01-31T07:42:03;98895.73;;;1.28;98.52
67373;BME280;54257;54.496;18.412;2023-01-31T07:44:29;98896.02;;;1.32;98.45
67373;BME280;54257;54.496;18.412;2023-01-31T07:46:56;98906.05;;;1.40;98.48
67373;BME280;54257;54.496;18.412;2023-01-31T07:49:23;98904.79;;;1.47;98.23
67373;BME280;54257;54.496;18.412;2023-01-31T07:51:49;98907.39;;;1.54;98.15
67373;BME280;54257;54.496;18.412;2023-01-31T07:54:16;98912.84;;;1.61;97.71
67373;BME280;54257;54.496;18.412;2023-01-31T07:56:42;98904.65;;;1.67;96.91
67373;BME280;54257;54.496;18.412;2023-01-31T07:59:10;98907.59;;;1.74;97.03
67373;BME280;54257;54.496;18.412;2023-01-31T08:01:37;98907.61;;;1.80;97.18
67373;BME280;54257;54.496;18.412;2023-01-31T08:04:22;98913.27;;;1.93;96.99
67373;BME280;54257;54.496;18.412;2023-01-31T08:06:52;98914.11;;;2.08;97.14
67373;BME280;54257;54.496;18.412;2023-01-31T08:09:21;98914.27;;;2.18;95.58
67373;BME280;54257;54.496;18.412;2023-01-31T08:11:48;98913.11;;;2.23;93.36
67373;BME280;54257;54.496;18.412;2023-01-31T08:14:14;98912.61;;;2.29;93.90
67373;BME280;54257;54.496;18.412;2023-01-31T08:16:40;98911.82;;;2.36;93.78
67373;BME280;54257;54.496;18.412;2023-01-31T08:19:07;98916.14;;;2.39;93.24
67373;BME280;54257;54.496;18.412;2023-01-31T08:21:33;98916.45;;;2.38;92.29
67373;BME280;54257;54.496;18.412;2023-01-31T08:24:00;98917.36;;;2.36;91.58
67373;BME280;54257;54.496;18.412;2023-01-31T08:26:26;98925.80;;;2.36;91.82
67373;BME280;54257;54.496;18.412;2023-01-31T08:28:52;98926.14;;;2.36;92.36
67373;BME280;54257;54.496;18.412;2023-01-31T08:31:23;98923.39;;;2.39;92.35
67373;BME280;54257;54.496;18.412;2023-01-31T08:33:51;98923.30;;;2.47;92.06
67373;BME280;54257;54.496;18.412;2023-01-31T08:36:19;98929.79;;;2.55;91.37
67373;BME280;54257;54.496;18.412;2023-01-31T08:38:46;98928.05;;;2.64;91.27
67373;BME280;54257;54.496;18.412;2023-01-31T08:41:14;98935.63;;;2.75;90.70
67373;BME280;54257;54.496;18.412;2023-01-31T08:43:44;98940.86;;;2.86;90.62
67373;BME280;54257;54.496;18.412;2023-01-31T08:46:12;98943.44;;;2.93;90.59
67373;BME280;54257;54.496;18.412;2023-01-31T08:48:38;98941.02;;;2.97;89.39
67373;BME280;54257;54.496;18.412;2023-01-31T08:51:07;98943.59;;;2.99;88.51
67373;BME280;54257;54.496;18.412;2023-01-31T08:53:39;98945.61;;;2.98;88.53
67373;BME280;54257;54.496;18.412;2023-01-31T08:56:07;98947.59;;;2.97;88.76
67373;BME280;54257;54.496;18.412;2023-01-31T08:58:35;98947.83;;;2.94;87.91
67373;BME280;54257;54.496;18.412;2023-01-31T09:01:07;98952.31;;;2.92;88.22
67373;BME280;54257;54.496;18.412;2023-01-31T09:03:34;98951.64;;;2.92;88.63
67373;BME280;54257;54.496;18.412;2023-01-31T09:06:03;98948.42;;;2.91;88.62
67373;BME280;54257;54.496;18.412;2023-01-31T09:08:31;98957.98;;;2.89;87.72
67373;BME280;54257;54.496;18.412;2023-01-31T09:10:58;98954.23;;;2.82;86.71
67373;BME280;54257;54.496;18.412;2023-01-31T09:13:26;98958.02;;;2.78;87.15
67373;BME280;54257;54.496;18.412;2023-01-31T09:16:08;98960.50;;;2.78;87.70
67373;BME280;54257;54.496;18.412;2023-01-31T09:18:37;98967.41;;;2.77;87.53
67373;BME280;54257;54.496;18.412;2023-01-31T09:21:19;98973.33;;;2.78;87.66
67373;BME280;54257;54.496;18.412;2023-01-31T09:23:47;98981.46;;;2.79;87.55
67373;BME280;54257;54.496;18.412;2023-01-31T09:26:15;98978.44;;;2.79;87.71
67373;BME280;54257;54.496;18.412;2023-01-31T09:28:42;98972.27;;;2.83;87.23
67373;BME280;54257;54.496;18.412;2023-01-31T09:31:13;98977.39;;;2.90;87.62
67373;BME280;54257;54.496;18.412;2023-01-31T09:33:40;98977.52;;;2.94;87.14
67373;BME280;54257;54.496;18.412;2023-01-31T09:36:15;98969.17;;;2.96;86.03
67373;BME280;54257;54.496;18.412;2023-01-31T09:38:43;98971.56;;;2.98;85.33
67373;BME280;54257;54.496;18.412;2023-01-31T09:43:58;98968.31;;;3.13;86.20
67373;BME280;54257;54.496;18.412;2023-01-31T09:46:31;98965.27;;;3.18;84.36
67373;BME280;54257;54.496;18.412;2023-01-31T09:49:01;98964.34;;;3.22;84.00
67373;BME280;54257;54.496;18.412;2023-01-31T09:51:32;98964.91;;;3.24;84.36
67373;BME280;54257;54.496;18.412;2023-01-31T09:54:01;98962.01;;;3.28;84.00
67373;BME280;54257;54.496;18.412;2023-01-31T09:56:40;98963.11;;;3.31;83.74
67373;BME280;54257;54.496;18.412;2023-01-31T09:59:40;98964.60;;;3.35;83.12
67373;BME280;54257;54.496;18.412;2023-01-31T10:08:14;98964.29;;;3.25;82.45
67373;BME280;54257;54.496;18.412;2023-01-31T10:10:50;98966.48;;;3.31;84.10
67373;BME280;54257;54.496;18.412;2023-01-31T10:13:28;98960.30;;;3.51;84.88
67373;BME280;54257;54.496;18.412;2023-01-31T10:16:04;98968.31;;;3.78;85.07
67373;BME280;54257;54.496;18.412;2023-01-31T10:18:37;98962.46;;;3.93;80.94
67373;BME280;54257;54.496;18.412;2023-01-31T10:21:21;98967.63;;;4.09;81.55
67373;BME280;54257;54.496;18.412;2023-01-31T10:23:54;98967.73;;;4.33;79.04
67373;BME280;54257;54.496;18.412;2023-01-31T10:26:26;98959.03;;;4.50;78.56
67373;BME280;54257;54.496;18.412;2023-01-31T10:34:18;98953.83;;;4.65;77.53
67373;BME280;54257;54.496;18.412;2023-01-31T10:37:36;98950.13;;;4.67;77.13
67373;BME280;54257;54.496;18.412;2023-01-31T10:40:33;98943.01;;;4.66;75.23
67373;BME280;54257;54.496;18.412;2023-01-31T10:43:35;98936.11;;;4.53;74.29
67373;BME280;54257;54.496;18.412;2023-01-31T10:46:10;98937.09;;;4.38;74.74
67373;BME280;54257;54.496;18.412;2023-01-31T10:48:38;98928.14;;;4.25;74.72
67373;BME280;54257;54.496;18.412;2023-01-31T10:51:28;98931.66;;;4.16;75.62
67373;BME280;54257;54.496;18.412;2023-01-31T10:56:39;98926.87;;;4.01;74.96
67373;BME280;54257;54.496;18.412;2023-01-31T10:59:33;98930.59;;;3.95;74.66
67373;BME280;54257;54.496;18.412;2023-01-31T11:01:59;98927.10;;;3.84;74.62
67373;BME280;54257;54.496;18.412;2023-01-31T11:04:37;98928.31;;;3.79;74.96
67373;BME280;54257;54.496;18.412;2023-01-31T11:07:04;98933.63;;;3.75;75.82
67373;BME280;54257;54.496;18.412;2023-01-31T11:09:36;98933.38;;;3.73;76.05
67373;BME280;54257;54.496;18.412;2023-01-31T11:12:05;98936.15;;;3.68;75.83
67373;BME280;54257;54.496;18.412;2023-01-31T11:14:32;98935.72;;;3.65;76.46
67373;BME280;54257;54.496;18.412;2023-01-31T11:17:06;98939.70;;;3.62;76.27
67373;BME280;54257;54.496;18.412;2023-01-31T11:19:44;98943.99;;;3.60;75.40
67373;BME280;54257;54.496;18.412;2023-01-31T11:22:22;98941.09;;;3.58;75.40
67373;BME280;54257;54.496;18.412;2023-01-31T11:24:52;98944.70;;;3.60;75.47
67373;BME280;54257;54.496;18.412;2023-01-31T11:27:34;98939.46;;;3.60;74.61
67373;BME280;54257;54.496;18.412;2023-01-31T11:30:03;98937.03;;;3.64;74.26
67373;BME280;54257;54.496;18.412;2023-01-31T11:32:34;98931.08;;;3.74;74.08
67373;BME280;54257;54.496;18.412;2023-01-31T11:35:25;98926.73;;;3.76;73.52
67373;BME280;54257;54.496;18.412;2023-01-31T11:37:56;98924.88;;;3.76;73.92
67373;BME280;54257;54.496;18.412;2023-01-31T11:40:35;98925.57;;;3.77;73.73
67373;BME280;54257;54.496;18.412;2023-01-31T11:43:23;98927.59;;;3.77;73.28
67373;BME280;54257;54.496;18.412;2023-01-31T11:45:56;98925.23;;;3.77;73.20
67373;BME280;54257;54.496;18.412;2023-01-31T11:48:27;98914.23;;;3.76;73.45
67373;BME280;54257;54.496;18.412;2023-01-31T11:51:00;98915.80;;;3.73;73.03
67373;BME280;54257;54.496;18.412;2023-01-31T11:53:44;98913.23;;;3.70;74.03
67373;BME280;54257;54.496;18.412;2023-01-31T11:56:19;98905.40;;;3.68;73.89
67373;BME280;54257;54.496;18.412;2023-01-31T11:58:51;98901.98;;;3.67;73.57
67373;BME280;54257;54.496;18.412;2023-01-31T12:01:20;98897.85;;;3.63;73.05
67373;BME280;54257;54.496;18.412;2023-01-31T12:03:52;98881.30;;;3.63;73.51
67373;BME280;54257;54.496;18.412;2023-01-31T12:06:27;98884.40;;;3.66;73.83
67373;BME280;54257;54.496;18.412;2023-01-31T12:08:55;98876.18;;;3.67;72.84
67373;BME280;54257;54.496;18.412;2023-01-31T12:11:32;98878.13;;;3.71;73.70
67373;BME280;54257;54.496;18.412;2023-01-31T12:14:12;98870.07;;;3.73;73.60
67373;BME280;54257;54.496;18.412;2023-01-31T12:16:39;98865.80;;;3.71;72.80
67373;BME280;54257;54.496;18.412;2023-01-31T12:22:13;98859.64;;;3.68;73.64
67373;BME280;54257;54.496;18.412;2023-01-31T12:25:27;98854.45;;;3.63;73.49
67373;BME280;54257;54.496;18.412;2023-01-31T12:56:53;98813.09;;;3.30;78.44
67373;BME280;54257;54.496;18.412;2023-01-31T12:59:45;98810.02;;;3.30;79.08
67373;BME280;54257;54.496;18.412;2023-01-31T13:02:31;98814.89;;;3.35;79.36
67373;BME280;54257;54.496;18.412;2023-01-31T13:05:12;98813.14;;;3.39;79.55
67373;BME280;54257;54.496;18.412;2023-01-31T13:08:34;98809.68;;;3.35;79.78
67373;BME280;54257;54.496;18.412;2023-01-31T13:10:50;98808.13;;;3.28;80.08
67373;BME280;54257;54.496;18.412;2023-01-31T13:13:25;98798.55;;;3.23;80.48
67373;BME280;54257;54.496;18.412;2023-01-31T13:18:29;98782.00;;;3.17;81.04
67373;BME280;54257;54.496;18.412;2023-01-31T13:21:03;98776.93;;;3.17;81.17
67373;BME280;54257;54.496;18.412;2023-01-31T13:23:37;98770.75;;;3.18;81.27
67373;BME280;54257;54.496;18.412;2023-01-31T13:26:19;98771.13;;;3.20;80.77
67373;BME280;54257;54.496;18.412;2023-01-31T13:29:02;98772.37;;;3.16;80.41
67373;BME280;54257;54.496;18.412;2023-01-31T13:31:36;98769.70;;;3.11;80.64
67373;BME280;54257;54.496;18.412;2023-01-31T13:34:30;98771.09;;;3.05;80.76
67373;BME280;54257;54.496;18.412;2023-01-31T13:37:09;98770.11;;;3.00;81.14
67373;BME280;54257;54.496;18.412;2023-01-31T13:39:47;98766.53;;;2.93;81.76
67373;BME280;54257;54.496;18.412;2023-01-31T13:42:15;98767.50;;;2.86;83.09
67373;BME280;54257;54.496;18.412;2023-01-31T13:44:42;98771.75;;;2.81;84.26
67373;BME280;54257;54.496;18.412;2023-01-31T13:47:14;98773.30;;;2.82;85.09
67373;BME280;54257;54.496;18.412;2023-01-31T13:52:31;98764.52;;;2.69;86.21
67373;BME280;54257;54.496;18.412;2023-01-31T13:55:07;98768.17;;;2.62;87.05
67373;BME280;54257;54.496;18.412;2023-01-31T13:57:40;98770.42;;;2.52;88.32
67373;BME280;54257;54.496;18.412;2023-01-31T14:00:46;98766.66;;;2.44;89.70
67373;BME280;54257;54.496;18.412;2023-01-31T14:03:17;98766.37;;;2.34;91.00
67373;BME280;54257;54.496;18.412;2023-01-31T14:08:38;98763.34;;;2.29;91.41
67373;BME280;54257;54.496;18.412;2023-01-31T14:14:20;98756.95;;;2.29;92.29
67373;BME280;54257;54.496;18.412;2023-01-31T14:16:53;98753.27;;;2.30;92.65
67373;BME280;54257;54.496;18.412;2023-01-31T14:19:29;98758.23;;;2.27;92.48
67373;BME280;54257;54.496;18.412;2023-01-31T14:27:23;98743.55;;;2.26;92.70
67373;BME280;54257;54.496;18.412;2023-01-31T14:32:58;98729.77;;;2.27;92.86
67373;BME280;54257;54.496;18.412;2023-01-31T14:53:01;98723.68;;;2.27;92.71
67373;BME280;54257;54.496;18.412;2023-01-31T14:58:22;98712.86;;;2.24;92.82
67373;BME280;54257;54.496;18.412;2023-01-31T15:00:56;98714.36;;;2.23;92.62
67373;BME280;54257;54.496;18.412;2023-01-31T15:03:54;98713.49;;;2.23;92.48
67373;BME280;54257;54.496;18.412;2023-01-31T15:06:36;98710.45;;;2.22;92.39
67373;BME280;54257;54.496;18.412;2023-01-31T15:11:44;98705.17;;;2.20;92.49
67373;BME280;54257;54.496;18.412;2023-01-31T15:14:42;98700.11;;;2.20;92.28
67373;BME280;54257;54.496;18.412;2023-01-31T15:17:24;98693.20;;;2.20;92.44
67373;BME280;54257;54.496;18.412;2023-01-31T15:22:32;98689.86;;;2.16;92.74
67373;BME280;54257;54.496;18.412;2023-01-31T15:25:17;98686.07;;;2.12;93.13
67373;BME280;54257;54.496;18.412;2023-01-31T15:27:46;98684.28;;;2.09;93.37
67373;BME280;54257;54.496;18.412;2023-01-31T15:30:19;98679.30;;;2.06;93.47
67373;BME280;54257;54.496;18.412;2023-01-31T15:32:53;98675.02;;;2.03;93.80
67373;BME280;54257;54.496;18.412;2023-01-31T15:35:29;98675.11;;;2.01;94.05
67373;BME280;54257;54.496;18.412;2023-01-31T15:38:04;98670.83;;;1.97;94.46
67373;BME280;54257;54.496;18.412;2023-01-31T15:40:31;98671.23;;;1.95;94.78
67373;BME280;54257;54.496;18.412;2023-01-31T15:43:20;98666.06;;;1.91;95.25
67373;BME280;54257;54.496;18.412;2023-01-31T15:45:48;98661.40;;;1.87;95.54
67373;BME280;54257;54.496;18.412;2023-01-31T15:48:19;98663.11;;;1.82;95.84
67373;BME280;54257;54.496;18.412;2023-01-31T15:50:58;98648.88;;;1.79;96.28
67373;BME280;54257;54.496;18.412;2023-01-31T15:53:27;98642.05;;;1.76;96.42